Terminal Aerodrome Forecast
Issued by NWS

Home | Current Version | Previous Version | Text Only | Print | Product List | Glossary On
Versions: 1 2 3 4 5 6 7 8 9 10 11 12 13 14 15
000
FTUS44 KLIX 251700
TAFMSY
TAF
KMSY 251720Z 2518/2618 25013G19KT P6SM SKC
     FM260400 29013KT P6SM SKC
     FM261300 33014KT P6SM FEW050=

USA.gov is the U.S. government's official web portal to all federal, state and local government web resources and services.